sensor_id;sensor_type;location;lat;lon;timestamp;pressure;altitude;pressure_sealevel;temperature;humidity
1029;BME280;503;48.120;11.488;2022-12-05T00:00:19;95005.75;;;7.01;62.66
1029;BME280;503;48.120;11.488;2022-12-05T00:02:44;95000.88;;;7.32;62.02
1029;BME280;503;48.120;11.488;2022-12-05T00:05:10;95011.88;;;7.58;61.25
1029;BME280;503;48.120;11.488;2022-12-05T00:07:36;95022.75;;;7.38;59.28
1029;BME280;503;48.120;11.488;2022-12-05T00:10:01;95022.34;;;6.40;62.09
1029;BME280;503;48.120;11.488;2022-12-05T00:12:26;95026.66;;;6.78;61.51
1029;BME280;503;48.120;11.488;2022-12-05T00:14:52;95020.69;;;6.20;63.51
1029;BME280;503;48.120;11.488;2022-12-05T00:17:17;95027.25;;;6.51;63.24
1029;BME280;503;48.120;11.488;2022-12-05T00:19:42;95030.78;;;6.66;62.44
1029;BME280;503;48.120;11.488;2022-12-05T00:22:07;95045.88;;;6.07;63.46
1029;BME280;503;48.120;11.488;2022-12-05T00:24:32;95040.31;;;6.09;64.17
1029;BME280;503;48.120;11.488;2022-12-05T00:26:58;95046.91;;;6.11;64.29
1029;BME280;503;48.120;11.488;2022-12-05T00:29:23;95041.63;;;6.40;63.56
1029;BME280;503;48.120;11.488;2022-12-05T00:31:48;95047.84;;;5.91;63.98
1029;BME280;503;48.120;11.488;2022-12-05T00:34:13;95043.78;;;5.70;65.53
1029;BME280;503;48.120;11.488;2022-12-05T00:36:39;95038.09;;;5.87;65.33
1029;BME280;503;48.120;11.488;2022-12-05T00:39:06;95037.22;;;6.31;64.71
1029;BME280;503;48.120;11.488;2022-12-05T00:41:32;95041.91;;;6.87;63.18
1029;BME280;503;48.120;11.488;2022-12-05T00:43:58;95054.44;;;7.00;61.97
1029;BME280;503;48.120;11.488;2022-12-05T00:46:24;95058.41;;;4.98;67.49
1029;BME280;503;48.120;11.488;2022-12-05T00:48:51;95057.34;;;4.99;68.92
1029;BME280;503;48.120;11.488;2022-12-05T00:51:18;95043.31;;;5.58;67.83
1029;BME280;503;48.120;11.488;2022-12-05T00:53:43;95049.53;;;6.11;65.86
1029;BME280;503;48.120;11.488;2022-12-05T00:56:10;94916.91;;;5.61;64.27
1029;BME280;503;48.120;11.488;2022-12-05T00:58:36;95048.47;;;5.73;64.41
1029;BME280;503;48.120;11.488;2022-12-05T01:01:20;95047.41;;;6.13;64.89
1029;BME280;503;48.120;11.488;2022-12-05T01:03:46;95054.88;;;6.06;65.09
1029;BME280;503;48.120;11.488;2022-12-05T01:06:13;95066.31;;;5.47;65.84
1029;BME280;503;48.120;11.488;2022-12-05T01:08:38;95069.22;;;5.90;65.64
1029;BME280;503;48.120;11.488;2022-12-05T01:11:04;95075.19;;;5.66;65.68
1029;BME280;503;48.120;11.488;2022-12-05T01:13:30;95081.72;;;5.35;67.25
1029;BME280;503;48.120;11.488;2022-12-05T01:15:56;95084.72;;;5.57;66.67
1029;BME280;503;48.120;11.488;2022-12-05T01:18:21;95094.13;;;6.18;65.62
1029;BME280;503;48.120;11.488;2022-12-05T01:20:47;95104.72;;;6.13;65.49
1029;BME280;503;48.120;11.488;2022-12-05T01:23:13;95122.94;;;5.10;67.87
1029;BME280;503;48.120;11.488;2022-12-05T01:25:42;95120.91;;;4.97;69.29
1029;BME280;503;48.120;11.488;2022-12-05T01:28:07;95121.63;;;5.13;68.99
1029;BME280;503;48.120;11.488;2022-12-05T01:30:35;95111.03;;;5.72;66.30
1029;BME280;503;48.120;11.488;2022-12-05T01:33:01;95099.84;;;5.46;67.84
1029;BME280;503;48.120;11.488;2022-12-05T01:35:26;95102.25;;;5.43;67.08
1029;BME280;503;48.120;11.488;2022-12-05T01:37:51;95094.06;;;5.89;66.65
1029;BME280;503;48.120;11.488;2022-12-05T01:40:16;95093.22;;;5.93;65.54
1029;BME280;503;48.120;11.488;2022-12-05T01:42:42;95101.25;;;5.34;67.13
1029;BME280;503;48.120;11.488;2022-12-05T01:45:52;95105.44;;;5.84;66.71
1029;BME280;503;48.120;11.488;2022-12-05T01:47:52;95118.63;;;5.35;67.59
1029;BME280;503;48.120;11.488;2022-12-05T01:50:18;95127.56;;;4.49;71.08
1029;BME280;503;48.120;11.488;2022-12-05T01:52:43;95127.44;;;5.05;69.39
1029;BME280;503;48.120;11.488;2022-12-05T01:55:11;95134.63;;;5.59;67.98
1029;BME280;503;48.120;11.488;2022-12-05T01:57:37;95130.44;;;5.42;68.03
1029;BME280;503;48.120;11.488;2022-12-05T02:00:07;95132.63;;;5.30;68.23
1029;BME280;503;48.120;11.488;2022-12-05T02:02:33;95143.09;;;4.65;70.19
1029;BME280;503;48.120;11.488;2022-12-05T02:05:04;95143.38;;;4.49;71.32
1029;BME280;503;48.120;11.488;2022-12-05T02:07:29;95171.28;;;4.50;71.70
1029;BME280;503;48.120;11.488;2022-12-05T02:09:56;95179.97;;;4.09;73.60
1029;BME280;503;48.120;11.488;2022-12-05T02:12:21;95186.75;;;3.70;75.11
1029;BME280;503;48.120;11.488;2022-12-05T02:15:10;95188.50;;;3.44;76.20
1029;BME280;503;48.120;11.488;2022-12-05T02:25:54;95185.25;;;4.35;73.11
1029;BME280;503;48.120;11.488;2022-12-05T02:28:29;95187.88;;;4.55;72.21
1029;BME280;503;48.120;11.488;2022-12-05T02:30:58;95187.34;;;4.68;71.20
1029;BME280;503;48.120;11.488;2022-12-05T02:33:34;95197.38;;;4.15;72.97
1029;BME280;503;48.120;11.488;2022-12-05T02:38:45;95196.59;;;4.25;73.70
1029;BME280;503;48.120;11.488;2022-12-05T02:43:41;95195.06;;;3.41;74.77
1029;BME280;503;48.120;11.488;2022-12-05T02:46:12;95202.47;;;3.49;75.24
1029;BME280;503;48.120;11.488;2022-12-05T02:48:38;95217.78;;;3.78;74.32
1029;BME280;503;48.120;11.488;2022-12-05T02:51:06;95205.84;;;3.39;76.22
1029;BME280;503;48.120;11.488;2022-12-05T02:53:33;95211.25;;;3.80;75.21
1029;BME280;503;48.120;11.488;2022-12-05T02:56:00;95212.50;;;3.73;75.36
1029;BME280;503;48.120;11.488;2022-12-05T02:58:30;95218.94;;;4.28;73.75
1029;BME280;503;48.120;11.488;2022-12-05T03:00:57;95225.47;;;3.84;74.70
1029;BME280;503;48.120;11.488;2022-12-05T03:03:22;95224.91;;;3.77;74.95
1029;BME280;503;48.120;11.488;2022-12-05T03:06:08;95224.09;;;3.14;77.09
1029;BME280;503;48.120;11.488;2022-12-05T03:08:48;95224.19;;;2.82;79.05
1029;BME280;503;48.120;11.488;2022-12-05T03:11:16;95236.22;;;2.78;79.19
1029;BME280;503;48.120;11.488;2022-12-05T03:13:45;95238.53;;;3.11;78.34
1029;BME280;503;48.120;11.488;2022-12-05T03:16:17;95251.88;;;3.00;78.41
1029;BME280;503;48.120;11.488;2022-12-05T03:18:46;95246.34;;;3.01;78.74
1029;BME280;503;48.120;11.488;2022-12-05T03:23:50;95244.72;;;4.00;73.86
1029;BME280;503;48.120;11.488;2022-12-05T03:27:04;95257.41;;;4.34;73.54
1029;BME280;503;48.120;11.488;2022-12-05T03:31:37;95252.88;;;4.04;73.59
1029;BME280;503;48.120;11.488;2022-12-05T03:34:03;95253.47;;;3.48;75.80
1029;BME280;503;48.120;11.488;2022-12-05T03:36:33;95266.00;;;3.31;76.66
1029;BME280;503;48.120;11.488;2022-12-05T03:41:52;95273.50;;;3.54;76.62
1029;BME280;503;48.120;11.488;2022-12-05T03:44:22;95146.44;;;2.86;76.33
1029;BME280;503;48.120;11.488;2022-12-05T03:47:25;95277.34;;;4.09;74.46
1029;BME280;503;48.120;11.488;2022-12-05T03:49:47;95284.81;;;4.43;72.62
1029;BME280;503;48.120;11.488;2022-12-05T03:52:15;95271.91;;;3.53;75.95
1029;BME280;503;48.120;11.488;2022-12-05T03:54:45;95278.44;;;3.46;76.41
1029;BME280;503;48.120;11.488;2022-12-05T03:57:14;95278.38;;;3.93;74.25
1029;BME280;503;48.120;11.488;2022-12-05T03:59:54;95267.19;;;4.59;72.38
1029;BME280;503;48.120;11.488;2022-12-05T04:02:32;95273.25;;;4.75;71.72
1029;BME280;503;48.120;11.488;2022-12-05T04:05:03;95275.81;;;4.29;72.54
1029;BME280;503;48.120;11.488;2022-12-05T04:07:30;95285.66;;;3.71;74.79
1029;BME280;503;48.120;11.488;2022-12-05T04:09:58;95289.56;;;4.51;72.53
1029;BME280;503;48.120;11.488;2022-12-05T04:12:26;95287.22;;;4.85;71.59
1029;BME280;503;48.120;11.488;2022-12-05T04:14:53;95284.31;;;4.51;71.91
1029;BME280;503;48.120;11.488;2022-12-05T04:17:33;95291.13;;;4.37;72.74
1029;BME280;503;48.120;11.488;2022-12-05T04:20:12;95293.19;;;4.25;72.78
1029;BME280;503;48.120;11.488;2022-12-05T04:22:57;95295.25;;;4.07;74.09
1029;BME280;503;48.120;11.488;2022-12-05T04:25:23;95292.94;;;4.21;73.16
1029;BME280;503;48.120;11.488;2022-12-05T04:30:40;95308.47;;;4.23;73.76
1029;BME280;503;48.120;11.488;2022-12-05T04:33:14;95303.81;;;4.76;72.41
1029;BME280;503;48.120;11.488;2022-12-05T04:35:42;95296.97;;;5.10;69.94
1029;BME280;503;48.120;11.488;2022-12-05T04:38:10;95304.34;;;4.57;71.71
1029;BME280;503;48.120;11.488;2022-12-05T04:40:40;95304.34;;;5.29;69.80
1029;BME280;503;48.120;11.488;2022-12-05T04:43:08;95297.16;;;5.60;68.70
1029;BME280;503;48.120;11.488;2022-12-05T04:45:34;95291.84;;;5.65;69.12
1029;BME280;503;48.120;11.488;2022-12-05T04:48:02;95292.22;;;5.12;70.35
1029;BME280;503;48.120;11.488;2022-12-05T04:50:29;95293.25;;;5.11;70.13
1029;BME280;503;48.120;11.488;2022-12-05T04:52:55;95275.72;;;5.71;69.48
1029;BME280;503;48.120;11.488;2022-12-05T04:55:23;95287.09;;;5.67;68.28
1029;BME280;503;48.120;11.488;2022-12-05T04:58:05;95277.03;;;5.79;67.56
1029;BME280;503;48.120;11.488;2022-12-05T05:00:31;95282.66;;;5.42;69.15
1029;BME280;503;48.120;11.488;2022-12-05T05:05:44;95261.25;;;5.64;68.49
1029;BME280;503;48.120;11.488;2022-12-05T05:08:18;95265.88;;;4.77;71.80
1029;BME280;503;48.120;11.488;2022-12-05T05:10:46;95269.53;;;4.60;71.96
1029;BME280;503;48.120;11.488;2022-12-05T05:13:14;95265.09;;;4.66;72.51
1029;BME280;503;48.120;11.488;2022-12-05T05:15:39;95257.16;;;5.22;70.64
1029;BME280;503;48.120;11.488;2022-12-05T05:18:04;95271.13;;;6.08;68.84
1029;BME280;503;48.120;11.488;2022-12-05T05:20:29;95265.84;;;6.52;67.16
1029;BME280;503;48.120;11.488;2022-12-05T05:22:55;95279.38;;;5.86;67.20
1029;BME280;503;48.120;11.488;2022-12-05T05:25:21;95288.69;;;6.33;67.71
1029;BME280;503;48.120;11.488;2022-12-05T05:27:51;95287.22;;;6.61;66.69
1029;BME280;503;48.120;11.488;2022-12-05T05:30:17;95291.34;;;6.28;65.90
1029;BME280;503;48.120;11.488;2022-12-05T05:32:42;95292.78;;;6.54;65.47
1029;BME280;503;48.120;11.488;2022-12-05T05:35:08;95291.88;;;7.08;64.97
1029;BME280;503;48.120;11.488;2022-12-05T05:37:33;95282.78;;;7.48;64.04
1029;BME280;503;48.120;11.488;2022-12-05T05:39:58;95284.84;;;7.75;63.13
1029;BME280;503;48.120;11.488;2022-12-05T05:42:24;95291.72;;;8.00;62.86
1029;BME280;503;48.120;11.488;2022-12-05T05:44:49;95295.19;;;8.20;62.01
1029;BME280;503;48.120;11.488;2022-12-05T05:47:14;95293.13;;;8.36;61.72
1029;BME280;503;48.120;11.488;2022-12-05T05:49:39;95292.97;;;8.51;60.92
1029;BME280;503;48.120;11.488;2022-12-05T05:52:04;95289.38;;;8.61;60.02
1029;BME280;503;48.120;11.488;2022-12-05T05:54:30;95294.81;;;8.69;60.22
1029;BME280;503;48.120;11.488;2022-12-05T05:56:55;95292.59;;;8.76;59.55
1029;BME280;503;48.120;11.488;2022-12-05T05:59:20;95298.38;;;8.78;59.23
1029;BME280;503;48.120;11.488;2022-12-05T06:01:45;95290.66;;;8.82;58.51
1029;BME280;503;48.120;11.488;2022-12-05T06:04:11;95300.66;;;8.85;58.53
1029;BME280;503;48.120;11.488;2022-12-05T06:06:36;95313.28;;;8.93;58.86
1029;BME280;503;48.120;11.488;2022-12-05T06:09:01;95323.81;;;8.98;58.31
1029;BME280;503;48.120;11.488;2022-12-05T06:11:27;95332.00;;;9.02;58.09
1029;BME280;503;48.120;11.488;2022-12-05T06:13:53;95327.72;;;9.06;58.05
1029;BME280;503;48.120;11.488;2022-12-05T06:16:18;95330.84;;;9.08;57.82
1029;BME280;503;48.120;11.488;2022-12-05T06:18:45;95338.31;;;9.06;57.64
1029;BME280;503;48.120;11.488;2022-12-05T06:21:10;95338.50;;;9.09;57.54
1029;BME280;503;48.120;11.488;2022-12-05T06:23:36;95334.78;;;9.10;57.66
1029;BME280;503;48.120;11.488;2022-12-05T06:26:02;95338.72;;;9.13;57.64
1029;BME280;503;48.120;11.488;2022-12-05T06:28:28;95345.81;;;9.18;57.44
1029;BME280;503;48.120;11.488;2022-12-05T06:30:53;95341.00;;;9.20;57.39
1029;BME280;503;48.120;11.488;2022-12-05T06:33:18;95341.31;;;9.18;57.38
1029;BME280;503;48.120;11.488;2022-12-05T06:35:44;95335.22;;;9.18;57.28
1029;BME280;503;48.120;11.488;2022-12-05T06:38:10;95339.66;;;9.22;56.86
1029;BME280;503;48.120;11.488;2022-12-05T06:40:42;95338.06;;;9.21;56.49
1029;BME280;503;48.120;11.488;2022-12-05T06:43:08;95339.84;;;9.26;57.04
1029;BME280;503;48.120;11.488;2022-12-05T06:45:33;95343.88;;;9.23;56.93
1029;BME280;503;48.120;11.488;2022-12-05T06:47:58;95334.91;;;9.19;57.08
1029;BME280;503;48.120;11.488;2022-12-05T06:50:24;95349.19;;;9.23;56.50
1029;BME280;503;48.120;11.488;2022-12-05T06:52:49;95356.81;;;9.11;56.87
1029;BME280;503;48.120;11.488;2022-12-05T06:55:14;95364.19;;;9.14;57.10
1029;BME280;503;48.120;11.488;2022-12-05T06:57:40;95363.03;;;9.20;57.08
1029;BME280;503;48.120;11.488;2022-12-05T07:00:05;95372.47;;;9.26;57.09
1029;BME280;503;48.120;11.488;2022-12-05T07:02:50;95363.72;;;9.26;56.92
1029;BME280;503;48.120;11.488;2022-12-05T07:05:15;95369.97;;;9.16;56.41
1029;BME280;503;48.120;11.488;2022-12-05T07:07:41;95367.31;;;9.16;56.11
1029;BME280;503;48.120;11.488;2022-12-05T07:10:06;95367.75;;;8.24;58.08
1029;BME280;503;48.120;11.488;2022-12-05T07:12:32;95371.75;;;8.21;59.49
1029;BME280;503;48.120;11.488;2022-12-05T07:14:57;95376.09;;;8.79;58.59
1029;BME280;503;48.120;11.488;2022-12-05T07:17:23;95373.44;;;8.98;57.51
1029;BME280;503;48.120;11.488;2022-12-05T07:19:49;95370.34;;;8.05;58.71
1029;BME280;503;48.120;11.488;2022-12-05T07:22:15;95373.84;;;7.71;60.32
1029;BME280;503;48.120;11.488;2022-12-05T07:24:40;95384.38;;;7.18;61.50
1029;BME280;503;48.120;11.488;2022-12-05T07:27:05;95380.09;;;7.56;61.46
1029;BME280;503;48.120;11.488;2022-12-05T07:29:31;95372.84;;;8.20;60.21
1029;BME280;503;48.120;11.488;2022-12-05T07:31:56;95381.19;;;7.50;61.36
1029;BME280;503;48.120;11.488;2022-12-05T07:34:21;95377.06;;;8.21;60.02
1029;BME280;503;48.120;11.488;2022-12-05T07:36:47;95380.13;;;8.28;59.26
1029;BME280;503;48.120;11.488;2022-12-05T07:39:12;95383.13;;;7.98;59.72
1029;BME280;503;48.120;11.488;2022-12-05T07:41:37;95392.78;;;7.89;60.14
1029;BME280;503;48.120;11.488;2022-12-05T07:44:02;95401.59;;;7.50;60.67
1029;BME280;503;48.120;11.488;2022-12-05T07:46:28;95403.72;;;8.06;60.11
1029;BME280;503;48.120;11.488;2022-12-05T07:48:53;95398.94;;;8.56;59.43
1029;BME280;503;48.120;11.488;2022-12-05T07:51:19;95406.44;;;8.92;58.97
1029;BME280;503;48.120;11.488;2022-12-05T07:53:45;95410.88;;;9.15;57.58
1029;BME280;503;48.120;11.488;2022-12-05T07:56:11;95409.69;;;9.40;57.37
1029;BME280;503;48.120;11.488;2022-12-05T07:58:43;95411.91;;;9.52;56.21
1029;BME280;503;48.120;11.488;2022-12-05T08:01:21;95406.16;;;9.63;56.03
1029;BME280;503;48.120;11.488;2022-12-05T08:03:47;95413.97;;;9.74;55.18
1029;BME280;503;48.120;11.488;2022-12-05T08:06:13;95413.28;;;9.82;55.76
1029;BME280;503;48.120;11.488;2022-12-05T08:08:39;95414.97;;;9.92;54.89
1029;BME280;503;48.120;11.488;2022-12-05T08:11:06;95409.78;;;10.00;54.87
1029;BME280;503;48.120;11.488;2022-12-05T08:13:32;95415.47;;;10.07;54.53
1029;BME280;503;48.120;11.488;2022-12-05T08:16:05;95308.44;;;9.47;54.40
1029;BME280;503;48.120;11.488;2022-12-05T08:18:31;95410.75;;;10.18;54.57
1029;BME280;503;48.120;11.488;2022-12-05T08:21:00;95413.25;;;10.28;54.57
1029;BME280;503;48.120;11.488;2022-12-05T08:23:28;95418.31;;;10.30;54.22
1029;BME280;503;48.120;11.488;2022-12-05T08:25:54;95426.97;;;10.35;53.65
1029;BME280;503;48.120;11.488;2022-12-05T08:28:19;95432.97;;;10.41;54.06
1029;BME280;503;48.120;11.488;2022-12-05T08:30:45;95440.56;;;10.48;54.63
1029;BME280;503;48.120;11.488;2022-12-05T08:33:10;95440.09;;;10.46;54.54
1029;BME280;503;48.120;11.488;2022-12-05T08:35:36;95437.50;;;10.54;54.55
1029;BME280;503;48.120;11.488;2022-12-05T08:38:01;95443.44;;;10.65;54.00
1029;BME280;503;48.120;11.488;2022-12-05T08:40:26;95439.97;;;10.64;53.92
1029;BME280;503;48.120;11.488;2022-12-05T08:42:52;95443.31;;;10.84;54.12
1029;BME280;503;48.120;11.488;2022-12-05T08:45:17;95441.63;;;11.02;53.79
1029;BME280;503;48.120;11.488;2022-12-05T08:47:43;95448.50;;;11.16;53.52
1029;BME280;503;48.120;11.488;2022-12-05T08:50:11;95448.84;;;11.24;52.85
1029;BME280;503;48.120;11.488;2022-12-05T08:52:36;95450.72;;;11.23;52.67
1029;BME280;503;48.120;11.488;2022-12-05T08:55:01;95453.09;;;11.25;52.38
1029;BME280;503;48.120;11.488;2022-12-05T08:57:27;95453.88;;;11.25;52.98
1029;BME280;503;48.120;11.488;2022-12-05T08:59:52;95452.00;;;11.26;52.22
1029;BME280;503;48.120;11.488;2022-12-05T09:02:17;95453.28;;;11.28;52.29
1029;BME280;503;48.120;11.488;2022-12-05T09:04:42;95452.19;;;11.29;52.43
1029;BME280;503;48.120;11.488;2022-12-05T09:07:08;95453.16;;;11.33;52.83
1029;BME280;503;48.120;11.488;2022-12-05T09:09:33;95458.91;;;11.27;52.31
1029;BME280;503;48.120;11.488;2022-12-05T09:11:59;95455.38;;;11.17;52.93
1029;BME280;503;48.120;11.488;2022-12-05T09:14:24;95458.47;;;11.11;52.28
1029;BME280;503;48.120;11.488;2022-12-05T09:16:50;95460.03;;;11.12;53.01
1029;BME280;503;48.120;11.488;2022-12-05T09:19:16;95462.41;;;11.00;53.32
1029;BME280;503;48.120;11.488;2022-12-05T09:21:42;95473.84;;;11.00;53.25
1029;BME280;503;48.120;11.488;2022-12-05T09:24:09;95465.06;;;11.00;53.16
1029;BME280;503;48.120;11.488;2022-12-05T09:26:34;95470.22;;;10.96;52.69
1029;BME280;503;48.120;11.488;2022-12-05T09:29:00;95468.44;;;10.91;53.13
1029;BME280;503;48.120;11.488;2022-12-05T09:31:26;95474.25;;;10.93;53.28
1029;BME280;503;48.120;11.488;2022-12-05T09:33:51;95475.44;;;11.01;52.67
1029;BME280;503;48.120;11.488;2022-12-05T09:36:18;95479.66;;;11.02;53.33
1029;BME280;503;48.120;11.488;2022-12-05T09:38:44;95488.34;;;11.08;53.52
1029;BME280;503;48.120;11.488;2022-12-05T09:41:54;95493.34;;;11.09;53.15
1029;BME280;503;48.120;11.488;2022-12-05T09:49:56;95492.09;;;11.07;52.97
1029;BME280;503;48.120;11.488;2022-12-05T09:52:24;95500.19;;;11.02;53.10
1029;BME280;503;48.120;11.488;2022-12-05T09:54:51;95489.69;;;11.05;53.29
1029;BME280;503;48.120;11.488;2022-12-05T09:57:18;95495.63;;;11.02;53.43
1029;BME280;503;48.120;11.488;2022-12-05T09:59:46;95488.44;;;11.03;53.84
1029;BME280;503;48.120;11.488;2022-12-05T10:05:20;95488.84;;;10.96;52.93
1029;BME280;503;48.120;11.488;2022-12-05T10:07:52;95495.44;;;10.99;53.66
1029;BME280;503;48.120;11.488;2022-12-05T10:17:59;95482.09;;;11.26;53.24
1029;BME280;503;48.120;11.488;2022-12-05T10:20:27;95488.38;;;11.30;53.46
1029;BME280;503;48.120;11.488;2022-12-05T10:22:56;95490.47;;;11.33;53.76
1029;BME280;503;48.120;11.488;2022-12-05T10:25:23;95475.22;;;11.48;52.74
1029;BME280;503;48.120;11.488;2022-12-05T10:27:51;95483.66;;;11.63;52.82
1029;BME280;503;48.120;11.488;2022-12-05T10:30:18;95481.78;;;11.64;52.24
1029;BME280;503;48.120;11.488;2022-12-05T10:33:02;95471.13;;;11.64;52.16
1029;BME280;503;48.120;11.488;2022-12-05T10:35:38;95473.56;;;11.74;52.27
1029;BME280;503;48.120;11.488;2022-12-05T10:38:05;95474.00;;;11.90;52.18
1029;BME280;503;48.120;11.488;2022-12-05T10:42:59;95476.50;;;12.17;51.27
1029;BME280;503;48.120;11.488;2022-12-05T10:45:24;95473.00;;;12.31;51.25
1029;BME280;503;48.120;11.488;2022-12-05T10:47:54;95476.13;;;12.33;51.05
1029;BME280;503;48.120;11.488;2022-12-05T10:52:48;95463.66;;;12.51;49.81
1029;BME280;503;48.120;11.488;2022-12-05T10:55:15;95455.41;;;12.61;50.01
1029;BME280;503;48.120;11.488;2022-12-05T10:57:41;95455.72;;;12.68;49.97
1029;BME280;503;48.120;11.488;2022-12-05T11:00:10;95459.19;;;12.06;48.85
1029;BME280;503;48.120;11.488;2022-12-05T11:02:37;95460.00;;;12.07;49.70
1029;BME280;503;48.120;11.488;2022-12-05T11:05:04;95457.78;;;12.31;50.04
1029;BME280;503;48.120;11.488;2022-12-05T11:07:44;95466.59;;;12.40;50.41
1029;BME280;503;48.120;11.488;2022-12-05T11:10:19;95461.97;;;12.55;50.32
1029;BME280;503;48.120;11.488;2022-12-05T11:12:45;95460.59;;;12.66;49.89
1029;BME280;503;48.120;11.488;2022-12-05T11:17:39;95460.91;;;12.33;49.90
1029;BME280;503;48.120;11.488;2022-12-05T11:20:47;95461.44;;;12.13;50.23
1029;BME280;503;48.120;11.488;2022-12-05T11:22:54;95457.19;;;11.44;52.19
1029;BME280;503;48.120;11.488;2022-12-05T11:27:58;95453.47;;;10.68;53.23
1029;BME280;503;48.120;11.488;2022-12-05T11:30:25;95464.00;;;11.01;53.83
1029;BME280;503;48.120;11.488;2022-12-05T11:33:37;95461.84;;;11.25;52.97
1029;BME280;503;48.120;11.488;2022-12-05T11:35:37;95449.53;;;11.29;52.80
1029;BME280;503;48.120;11.488;2022-12-05T11:38:03;95451.38;;;11.65;52.24
1029;BME280;503;48.120;11.488;2022-12-05T11:56:21;95445.59;;;12.47;49.82
1029;BME280;503;48.120;11.488;2022-12-05T11:58:52;95459.84;;;10.26;55.19
1029;BME280;503;48.120;11.488;2022-12-05T12:01:24;95453.84;;;11.03;54.03
1029;BME280;503;48.120;11.488;2022-12-05T12:09:08;95460.56;;;10.59;55.29
1029;BME280;503;48.120;11.488;2022-12-05T12:11:51;95462.63;;;10.34;55.90
1029;BME280;503;48.120;11.488;2022-12-05T12:14:19;95463.38;;;11.17;54.67
1029;BME280;503;48.120;11.488;2022-12-05T12:17:09;95473.28;;;10.62;53.84
1029;BME280;503;48.120;11.488;2022-12-05T12:19:43;95467.25;;;10.84;54.73
1029;BME280;503;48.120;11.488;2022-12-05T12:25:00;95460.97;;;10.66;54.73
1029;BME280;503;48.120;11.488;2022-12-05T12:27:33;95457.75;;;10.09;56.67
1029;BME280;503;48.120;11.488;2022-12-05T12:30:11;95456.84;;;8.92;59.30
1029;BME280;503;48.120;11.488;2022-12-05T12:32:42;95452.94;;;8.65;60.90
1029;BME280;503;48.120;11.488;2022-12-05T12:43:22;95446.38;;;7.75;64.42
1029;BME280;503;48.120;11.488;2022-12-05T12:46:11;95442.09;;;8.38;62.74
1029;BME280;503;48.120;11.488;2022-12-05T12:51:11;95444.34;;;8.73;61.26
1029;BME280;503;48.120;11.488;2022-12-05T13:03:50;95450.53;;;7.13;65.78
1029;BME280;503;48.120;11.488;2022-12-05T13:06:27;95455.63;;;6.99;65.22
1029;BME280;503;48.120;11.488;2022-12-05T13:08:55;95458.84;;;7.36;64.80
1029;BME280;503;48.120;11.488;2022-12-05T13:11:22;95450.47;;;7.23;65.22
1029;BME280;503;48.120;11.488;2022-12-05T13:13:50;95451.66;;;7.02;65.42
1029;BME280;503;48.120;11.488;2022-12-05T13:16:33;95443.94;;;7.84;62.92
1029;BME280;503;48.120;11.488;2022-12-05T13:19:00;95455.56;;;7.54;62.99
1029;BME280;503;48.120;11.488;2022-12-05T13:21:27;95438.25;;;7.67;63.98
1029;BME280;503;48.120;11.488;2022-12-05T13:23:53;95444.03;;;7.35;63.11
1029;BME280;503;48.120;11.488;2022-12-05T13:26:20;95442.78;;;7.61;62.79
1029;BME280;503;48.120;11.488;2022-12-05T13:28:54;95453.22;;;7.08;63.64
1029;BME280;503;48.120;11.488;2022-12-05T13:31:33;95449.34;;;6.85;65.31
1029;BME280;503;48.120;11.488;2022-12-05T13:33:59;95446.03;;;6.64;66.80
1029;BME280;503;48.120;11.488;2022-12-05T13:36:24;95454.78;;;6.49;65.86
1029;BME280;503;48.120;11.488;2022-12-05T13:39:18;95452.50;;;6.92;66.10
1029;BME280;503;48.120;11.488;2022-12-05T13:42:03;95464.91;;;6.27;66.33
1029;BME280;503;48.120;11.488;2022-12-05T13:44:40;95466.78;;;6.27;67.07
1029;BME280;503;48.120;11.488;2022-12-05T13:47:07;95452.47;;;6.38;66.91
1029;BME280;503;48.120;11.488;2022-12-05T13:49:44;95448.06;;;6.83;65.28
1029;BME280;503;48.120;11.488;2022-12-05T13:52:17;95445.09;;;6.94;64.82
1029;BME280;503;48.120;11.488;2022-12-05T13:54:45;95449.03;;;7.02;65.32
1029;BME280;503;48.120;11.488;2022-12-05T13:57:57;95452.50;;;6.97;65.50
1029;BME280;503;48.120;11.488;2022-12-05T14:10:07;95469.59;;;6.56;66.60
1029;BME280;503;48.120;11.488;2022-12-05T14:12:45;95458.78;;;6.52;67.81
1029;BME280;503;48.120;11.488;2022-12-05T14:17:48;95465.84;;;6.72;66.75
1029;BME280;503;48.120;11.488;2022-12-05T14:20:37;95462.31;;;6.87;67.27
1029;BME280;503;48.120;11.488;2022-12-05T14:23:10;95463.22;;;6.67;67.20
1029;BME280;503;48.120;11.488;2022-12-05T14:28:37;95466.56;;;8.00;63.33
1029;BME280;503;48.120;11.488;2022-12-05T14:33:38;95473.81;;;7.90;62.09
1029;BME280;503;48.120;11.488;2022-12-05T14:36:04;95480.44;;;7.53;63.01
1029;BME280;503;48.120;11.488;2022-12-05T14:38:31;95478.84;;;7.13;64.38
1029;BME280;503;48.120;11.488;2022-12-05T14:41:10;95482.47;;;7.66;63.31
1029;BME280;503;48.120;11.488;2022-12-05T14:43:36;95491.63;;;7.45;64.41
1029;BME280;503;48.120;11.488;2022-12-05T14:46:03;95490.00;;;7.49;63.88
1029;BME280;503;48.120;11.488;2022-12-05T14:48:37;95489.03;;;7.74;64.11
1029;BME280;503;48.120;11.488;2022-12-05T14:53:48;95478.16;;;7.75;64.04
1029;BME280;503;48.120;11.488;2022-12-05T14:56:18;95478.25;;;6.76;67.12
1029;BME280;503;48.120;11.488;2022-12-05T15:06:31;95459.09;;;6.35;69.55
1029;BME280;503;48.120;11.488;2022-12-05T15:08:57;95454.81;;;6.44;70.49
1029;BME280;503;48.120;11.488;2022-12-05T15:11:25;95467.63;;;6.82;69.52
1029;BME280;503;48.120;11.488;2022-12-05T15:13:55;95459.00;;;7.54;67.34
1029;BME280;503;48.120;11.488;2022-12-05T15:16:20;95460.06;;;7.82;66.29
1029;BME280;503;48.120;11.488;2022-12-05T15:18:48;95466.91;;;8.18;64.88
1029;BME280;503;48.120;11.488;2022-12-05T15:21:35;95475.09;;;8.50;64.30
1029;BME280;503;48.120;11.488;2022-12-05T15:24:03;95460.97;;;8.79;63.41
1029;BME280;503;48.120;11.488;2022-12-05T15:26:39;95467.69;;;8.47;63.27
1029;BME280;503;48.120;11.488;2022-12-05T15:29:06;95467.88;;;7.98;64.22
1029;BME280;503;48.120;11.488;2022-12-05T15:31:33;95467.19;;;8.69;63.37
1029;BME280;503;48.120;11.488;2022-12-05T15:34:21;95469.88;;;7.82;65.32
1029;BME280;503;48.120;11.488;2022-12-05T15:36:45;95475.09;;;7.24;66.60
1029;BME280;503;48.120;11.488;2022-12-05T15:39:20;95483.47;;;6.92;68.19
1029;BME280;503;48.120;11.488;2022-12-05T15:41:52;95486.81;;;7.08;68.50
1029;BME280;503;48.120;11.488;2022-12-05T15:44:18;95486.31;;;7.84;66.17